< < Back
Terminal Aerodrome Forecast


Current Version              Previous Versions:   1  2  3  4  5  6  7  8  9  

Terminal Aerodrome Forecast

608
FTUS44 KHUN 241739
TAFHSV
TAF
KHSV 241739Z 2418/2518 18010G17KT P6SM SCT050 BKN250
     FM250600 20012G20KT 6SM TSRA OVC040CB
     FM250800 20012G22KT P6SM VCSH OVC030
      TEMPO 2510/2511 OVC020
     FM251500 28013KT P6SM FEW020=

Latest METAR

788
SAUS80 KWBC 241700 RRA
MTRHSV
METAR KHSV 241653Z 19009KT 10SM BKN250 26/07 A2996 RMK AO2 SLP138
T02560072


USA.gov is the U.S. government's official web portal to all federal, state and local government web resources and services.